createdAt,value
2018-01-19T00:01:24.446Z,99503.42
2018-01-19T00:03:51.973Z,99497.25
2018-01-19T00:06:19.505Z,99503.96
2018-01-19T00:08:47.038Z,99510.59
2018-01-19T00:11:14.569Z,99514.96
2018-01-19T00:13:42.101Z,99513.59
2018-01-19T00:16:09.641Z,99523.79
2018-01-19T00:18:37.177Z,99526.75
2018-01-19T00:21:05.453Z,99529.47
2018-01-19T00:23:32.989Z,99535.12
2018-01-19T00:26:00.522Z,99534.53
2018-01-19T00:28:28.052Z,99536.98
2018-01-19T00:30:55.585Z,99542.95
2018-01-19T00:33:23.123Z,99543.37
2018-01-19T00:35:51.557Z,99543.37
2018-01-19T00:38:19.878Z,99546.59
2018-01-19T00:40:47.413Z,99552.48
2018-01-19T00:43:15.733Z,99553.14
2018-01-19T00:45:44.209Z,99563.93
2018-01-19T00:48:11.749Z,99564.11
2018-01-19T00:50:39.286Z,99551.78
2018-01-19T00:53:07.601Z,99561.63
2018-01-19T00:55:35.265Z,99572.45
2018-01-19T00:58:02.801Z,99571.22
2018-01-19T01:00:30.333Z,99574.13
2018-01-19T01:02:58.776Z,99584.21
2018-01-19T01:05:27.171Z,99584.07
2018-01-19T01:07:55.483Z,99591.65
2018-01-19T01:10:23.810Z,99597.20
2018-01-19T01:12:52.407Z,99600.55
2018-01-19T01:15:19.943Z,99596.77
2018-01-19T01:17:48.283Z,99601.98
2018-01-19T01:20:15.814Z,99600.83
2018-01-19T01:22:44.326Z,99609.20
2018-01-19T01:25:12.681Z,99604.98
2018-01-19T01:27:40.216Z,99610.11
2018-01-19T01:30:07.741Z,99615.62
2018-01-19T01:32:35.310Z,99613.42
2018-01-19T01:35:03.767Z,99613.05
2018-01-19T01:37:31.311Z,99616.67
2018-01-19T01:39:59.829Z,99621.94
2018-01-19T01:42:27.407Z,99621.63
2018-01-19T01:44:55.771Z,99626.94
2018-01-19T01:47:24.247Z,99631.65
2018-01-19T01:49:51.786Z,99625.95
2018-01-19T01:52:19.322Z,99636.95
2018-01-19T01:54:46.903Z,99635.94
2018-01-19T01:57:15.329Z,99640.55
2018-01-19T01:59:43.738Z,99633.29
2018-01-19T02:02:11.277Z,99641.56
2018-01-19T02:04:38.826Z,99639.64
2018-01-19T02:07:07.150Z,99649.87
2018-01-19T02:09:35.593Z,99651.94
2018-01-19T02:12:03.132Z,99654.66
2018-01-19T02:14:31.613Z,99655.63
2018-01-19T02:16:59.150Z,99651.16
2018-01-19T02:19:26.718Z,99655.28
2018-01-19T02:21:54.242Z,99658.36
2018-01-19T02:24:21.792Z,99659.72
2018-01-19T02:26:50.233Z,99663.80
2018-01-19T02:29:17.770Z,99667.13
2018-01-19T02:31:45.304Z,99664.99
2018-01-19T02:34:12.830Z,99660.70
2018-01-19T02:36:41.309Z,99664.92
2018-01-19T02:39:09.690Z,99657.59
2018-01-19T02:41:37.235Z,99664.40
2018-01-19T02:44:05.633Z,99665.91
2018-01-19T02:46:33.166Z,99663.84
2018-01-19T02:49:00.707Z,99671.70
2018-01-19T02:51:28.246Z,99670.66
2018-01-19T02:53:55.775Z,99670.16
2018-01-19T02:56:23.343Z,99684.03
2018-01-19T02:58:50.877Z,99679.06
2018-01-19T03:01:18.406Z,99680.59
2018-01-19T03:03:45.939Z,99687.38
2018-01-19T03:06:13.477Z,99690.70
2018-01-19T03:08:41.013Z,99687.20
2018-01-19T03:11:08.555Z,99688.38
2018-01-19T03:13:36.134Z,99695.22
2018-01-19T03:16:03.671Z,99694.24
2018-01-19T03:18:31.208Z,99686.95
2018-01-19T03:20:58.739Z,99692.61
2018-01-19T03:23:26.270Z,99691.70
2018-01-19T03:25:53.806Z,99693.69
2018-01-19T03:28:21.376Z,99694.44
2018-01-19T03:30:48.907Z,99694.22
2018-01-19T03:33:17.233Z,99702.26
2018-01-19T03:35:44.769Z,99708.75
2018-01-19T03:38:12.296Z,99704.59
2018-01-19T03:40:39.825Z,99705.36
2018-01-19T03:43:07.358Z,99705.66
2018-01-19T03:45:34.941Z,99714.20
2018-01-19T03:48:02.478Z,99718.50
2018-01-19T03:50:30.803Z,99722.47
2018-01-19T03:52:59.200Z,99722.45
2018-01-19T03:55:26.934Z,99728.14
2018-01-19T03:57:54.480Z,99729.05
2018-01-19T04:00:22.066Z,99733.56
2018-01-19T04:02:49.603Z,99740.28
2018-01-19T04:05:17.143Z,99743.20
2018-01-19T04:07:44.682Z,99736.69
2018-01-19T04:10:12.916Z,99742.47
2018-01-19T04:12:41.378Z,99746.56
2018-01-19T04:15:08.913Z,99751.66
2018-01-19T04:17:37.263Z,99754.03
2018-01-19T04:20:04.797Z,99759.69
2018-01-19T04:22:32.358Z,99757.20
2018-01-19T04:24:59.890Z,99759.11
2018-01-19T04:27:27.422Z,99768.34
2018-01-19T04:29:55.756Z,99770.86
2018-01-19T04:32:24.187Z,99767.48
2018-01-19T04:34:51.762Z,99773.11
2018-01-19T04:37:20.075Z,99771.86
2018-01-19T04:39:48.411Z,99768.73
2018-01-19T04:42:16.882Z,99769.25
2018-01-19T04:44:45.189Z,99772.09
2018-01-19T04:47:13.578Z,99776.73
2018-01-19T04:49:41.862Z,99778.00
2018-01-19T04:52:09.454Z,99782.41
2018-01-19T04:54:37.805Z,99783.05
2018-01-19T04:57:05.338Z,99790.57
2018-01-19T04:59:33.565Z,99787.22
2018-01-19T05:02:01.094Z,99793.89
2018-01-19T05:04:28.634Z,99795.52
2018-01-19T05:06:57.115Z,99794.16
2018-01-19T05:09:24.662Z,99800.94
2018-01-19T05:11:52.206Z,99806.84
2018-01-19T05:14:19.759Z,99812.45
2018-01-19T05:16:47.314Z,99813.81
2018-01-19T05:19:14.860Z,99812.27
2018-01-19T05:21:42.418Z,99815.42
2018-01-19T05:24:09.974Z,99817.72
2018-01-19T05:26:37.510Z,99821.41
2018-01-19T05:29:05.055Z,99827.77
2018-01-19T05:31:32.584Z,99826.20
2018-01-19T05:34:00.122Z,99826.75
2018-01-19T05:36:27.701Z,99835.15
2018-01-19T05:38:56.177Z,99826.98
2018-01-19T05:41:24.459Z,99825.30
2018-01-19T05:43:51.990Z,99832.27
2018-01-19T05:46:19.527Z,99839.24
2018-01-19T05:48:47.065Z,99839.31
2018-01-19T05:51:14.599Z,99845.29
2018-01-19T05:53:43.050Z,99842.13
2018-01-19T05:56:11.290Z,99840.73
2018-01-19T05:58:38.817Z,99848.13
2018-01-19T06:01:06.352Z,99848.25
2018-01-19T06:03:33.909Z,99857.13
2018-01-19T06:06:01.483Z,99855.55
2018-01-19T06:08:29.927Z,99860.17
2018-01-19T06:10:57.498Z,99863.27
2018-01-19T06:13:25.079Z,99865.78
2018-01-19T06:15:53.531Z,99874.92
2018-01-19T06:18:21.070Z,99873.16
2018-01-19T06:20:49.505Z,99873.54
2018-01-19T06:23:17.074Z,99883.74
2018-01-19T06:25:45.397Z,99890.14
2018-01-19T06:28:12.975Z,99885.64
2018-01-19T06:30:40.520Z,99892.78
2018-01-19T06:33:08.060Z,99887.88
2018-01-19T06:35:35.600Z,99900.53
2018-01-19T06:38:03.830Z,99900.44
2018-01-19T06:40:31.373Z,99895.72
2018-01-19T06:42:59.927Z,99900.14
2018-01-19T06:45:27.466Z,99913.52
2018-01-19T06:47:55.001Z,99913.80
2018-01-19T06:50:22.539Z,99909.25
2018-01-19T06:52:50.107Z,99914.42
2018-01-19T06:55:17.645Z,99924.20
2018-01-19T06:57:45.190Z,99925.82
2018-01-19T07:00:12.779Z,99932.25
2018-01-19T07:02:40.314Z,99938.42
2018-01-19T07:05:07.852Z,99944.35
2018-01-19T07:07:35.398Z,99945.70
2018-01-19T07:10:02.944Z,99947.29
2018-01-19T07:12:30.479Z,99946.97
2018-01-19T07:14:58.015Z,99946.88
2018-01-19T07:17:26.484Z,99951.52
2018-01-19T07:19:54.074Z,99954.98
2018-01-19T07:22:21.608Z,99957.22
2018-01-19T07:24:49.142Z,99956.44
2018-01-19T07:27:16.716Z,99966.20
2018-01-19T07:29:44.284Z,99966.45
2018-01-19T07:32:12.606Z,99975.86
2018-01-19T07:34:40.958Z,99972.17
2018-01-19T07:37:09.536Z,99982.09
2018-01-19T07:39:38.113Z,99988.52
2018-01-19T07:42:05.707Z,99988.63
2018-01-19T07:44:33.248Z,99997.15
2018-01-19T07:47:00.830Z,99998.95
2018-01-19T07:49:28.413Z,100006.95
2018-01-19T07:51:55.955Z,100006.14
2018-01-19T07:54:23.503Z,100012.40
2018-01-19T07:56:51.046Z,100020.17
2018-01-19T07:59:18.598Z,100021.38
2018-01-19T08:01:46.138Z,100024.52
2018-01-19T08:04:14.496Z,100031.55
2018-01-19T08:06:42.915Z,100028.53
2018-01-19T08:09:10.490Z,100035.30
2018-01-19T08:11:38.856Z,100038.59
2018-01-19T08:14:07.200Z,100041.77
2018-01-19T08:16:35.586Z,100044.88
2018-01-19T08:19:03.979Z,100045.70
2018-01-19T08:21:32.294Z,100048.09
2018-01-19T08:24:00.709Z,100049.55
2018-01-19T08:26:28.251Z,100049.67
2018-01-19T08:28:55.837Z,100056.74
2018-01-19T08:31:24.285Z,100061.08
2018-01-19T08:33:51.845Z,100054.67
2018-01-19T08:36:19.391Z,100057.82
2018-01-19T08:38:47.884Z,100070.23
2018-01-19T08:41:15.425Z,100071.68
2018-01-19T08:43:43.406Z,100074.98
2018-01-19T08:46:10.947Z,100081.61
2018-01-19T08:48:39.462Z,100085.01
2018-01-19T08:51:07.693Z,100081.23
2018-01-19T08:53:36.067Z,100090.73
2018-01-19T08:56:03.629Z,100093.91
2018-01-19T08:58:31.166Z,100091.60
2018-01-19T09:00:58.746Z,100097.01
2018-01-19T09:03:26.326Z,100098.39
2018-01-19T09:05:53.883Z,100100.11
2018-01-19T09:08:21.483Z,100106.57
2018-01-19T09:10:49.026Z,100106.96
2018-01-19T09:13:16.569Z,100109.78
2018-01-19T09:15:44.111Z,100110.11
2018-01-19T09:18:12.055Z,100115.80
2018-01-19T09:20:39.611Z,100116.16
2018-01-19T09:23:07.233Z,100113.28
2018-01-19T09:25:36.021Z,100115.83
2018-01-19T09:28:11.057Z,100123.69
2018-01-19T09:33:22.067Z,100123.91
2018-01-19T09:36:00.518Z,100124.88
2018-01-19T09:38:28.122Z,100137.73
2018-01-19T09:40:55.678Z,100141.03
2018-01-19T09:43:23.250Z,100146.29
2018-01-19T09:45:50.816Z,100146.64
2018-01-19T09:48:18.425Z,100150.59
2018-01-19T09:50:46.047Z,100148.97
2018-01-19T09:53:13.618Z,100148.91
2018-01-19T09:55:41.162Z,100157.43
2018-01-19T09:58:08.714Z,100157.19
2018-01-19T10:00:36.349Z,100158.47
2018-01-19T10:03:03.895Z,100156.45
2018-01-19T10:05:31.496Z,100164.59
2018-01-19T10:07:59.042Z,100166.60
2018-01-19T10:10:26.640Z,100175.63
2018-01-19T10:12:54.204Z,100174.30
2018-01-19T10:15:22.540Z,100170.84
2018-01-19T10:17:50.137Z,100178.79
2018-01-19T10:20:17.669Z,100182.03
2018-01-19T10:22:45.209Z,100177.35
2018-01-19T10:25:12.854Z,100186.80
2018-01-19T10:27:40.474Z,100180.55
2018-01-19T10:30:08.048Z,100186.73
2018-01-19T10:32:44.464Z,100186.91
2018-01-19T10:35:12.012Z,100187.98
2018-01-19T10:37:39.581Z,100189.77
2018-01-19T10:40:07.125Z,100186.52
2018-01-19T10:42:34.671Z,100185.91
2018-01-19T10:45:02.293Z,100186.03
2018-01-19T10:47:29.889Z,100189.14
2018-01-19T10:49:57.454Z,100188.97
2018-01-19T10:52:25.084Z,100190.67
2018-01-19T10:54:52.773Z,100196.55
2018-01-19T10:57:20.314Z,100200.30
2018-01-19T10:59:47.899Z,100197.93
2018-01-19T11:02:15.665Z,100204.64
2018-01-19T11:04:43.219Z,100200.81
2018-01-19T11:07:34.546Z,100206.42
2018-01-19T11:10:02.232Z,100210.42
2018-01-19T11:12:30.047Z,100207.86
2018-01-19T11:14:57.601Z,100214.80
2018-01-19T11:17:25.195Z,100210.97
2018-01-19T11:19:52.747Z,100205.84
2018-01-19T11:22:20.410Z,100200.97
2018-01-19T11:24:47.948Z,100200.22
2018-01-19T11:27:15.490Z,100207.40
2018-01-19T11:29:43.070Z,100202.73
2018-01-19T11:32:10.768Z,100205.28
2018-01-19T11:34:38.430Z,100207.08
2018-01-19T11:37:06.006Z,100210.49
2018-01-19T11:39:33.545Z,100201.95
2018-01-19T11:42:01.087Z,100211.00
2018-01-19T11:44:28.642Z,100206.48
2018-01-19T11:46:56.223Z,100208.39
2018-01-19T11:49:23.854Z,100215.85
2018-01-19T11:51:52.325Z,100214.41
2018-01-19T11:54:20.658Z,100215.19
2018-01-19T11:56:48.199Z,100217.46
2018-01-19T11:59:15.808Z,100220.97
2018-01-19T12:01:43.842Z,100215.51
2018-01-19T12:04:11.390Z,100217.97
2018-01-19T12:06:38.971Z,100218.84
2018-01-19T12:09:06.586Z,100223.98
2018-01-19T12:11:34.162Z,100223.00
2018-01-19T12:14:01.706Z,100221.46
2018-01-19T12:16:29.303Z,100217.52
2018-01-19T12:18:56.851Z,100219.78
2018-01-19T12:21:24.393Z,100215.58
2018-01-19T12:23:51.954Z,100215.20
2018-01-19T12:26:19.515Z,100218.20
2018-01-19T12:28:47.114Z,100212.21
2018-01-19T12:31:14.654Z,100217.58
2018-01-19T12:33:42.200Z,100216.73
2018-01-19T12:36:09.795Z,100218.14
2018-01-19T12:38:37.335Z,100220.07
2018-01-19T12:41:04.914Z,100218.77
2018-01-19T12:43:32.458Z,100218.56
2018-01-19T12:46:00.041Z,100221.58
2018-01-19T12:48:27.583Z,100216.11
2018-01-19T12:50:55.358Z,100226.91
2018-01-19T12:53:22.922Z,100230.16
2018-01-19T12:55:50.554Z,100237.59
2018-01-19T12:58:18.093Z,100234.20
2018-01-19T13:00:45.675Z,100235.91
2018-01-19T13:03:13.217Z,100235.67
2018-01-19T13:05:40.753Z,100242.72
2018-01-19T13:08:08.390Z,100255.13
2018-01-19T13:10:35.931Z,100255.83
2018-01-19T13:13:04.262Z,100259.05
2018-01-19T13:15:32.721Z,100254.08
2018-01-19T13:18:00.298Z,100265.53
2018-01-19T13:20:27.844Z,100259.19
2018-01-19T13:22:55.397Z,100258.91
2018-01-19T13:25:22.984Z,100258.19
2018-01-19T13:27:50.526Z,100255.73
2018-01-19T13:30:18.071Z,100260.83
2018-01-19T13:32:45.609Z,100264.64
2018-01-19T13:35:13.198Z,100271.77
2018-01-19T13:37:40.852Z,100266.64
2018-01-19T13:40:09.317Z,100270.99
2018-01-19T13:42:37.750Z,100273.06
2018-01-19T13:45:05.289Z,100269.94
2018-01-19T13:47:32.834Z,100267.95
2018-01-19T13:50:00.374Z,100266.29
2018-01-19T13:52:27.961Z,100268.36
2018-01-19T13:54:55.586Z,100276.54
2018-01-19T13:57:23.162Z,100275.69
2018-01-19T13:59:50.712Z,100277.94
2018-01-19T14:02:18.407Z,100284.76
2018-01-19T14:04:45.950Z,100283.48
2018-01-19T14:07:13.495Z,100282.73
2018-01-19T14:09:41.905Z,100287.30
2018-01-19T14:12:09.450Z,100282.86
2018-01-19T14:14:36.995Z,100283.77
2018-01-19T14:17:04.585Z,100286.20
2018-01-19T14:19:32.165Z,100287.70
2018-01-19T14:21:59.780Z,100286.17
2018-01-19T14:24:27.355Z,100289.79
2018-01-19T14:26:54.901Z,100291.64
2018-01-19T14:29:22.487Z,100295.42
2018-01-19T14:31:50.028Z,100290.45
2018-01-19T14:34:17.626Z,100292.02
2018-01-19T14:36:45.356Z,100297.20
2018-01-19T14:39:13.687Z,100297.19
2018-01-19T14:41:41.225Z,100296.34
2018-01-19T14:44:08.886Z,100301.80
2018-01-19T14:46:37.206Z,100305.34
2018-01-19T14:49:04.755Z,100306.34
2018-01-19T14:51:33.202Z,100314.14
2018-01-19T14:54:00.738Z,100313.62
2018-01-19T14:56:28.422Z,100321.23
2018-01-19T14:58:55.962Z,100321.52
2018-01-19T15:01:25.145Z,100319.83
2018-01-19T15:03:52.715Z,100328.28
2018-01-19T15:06:20.257Z,100320.02
2018-01-19T15:08:47.799Z,100331.09
2018-01-19T15:11:15.400Z,100323.58
2018-01-19T15:13:43.629Z,100330.34
2018-01-19T15:16:11.244Z,100329.41
2018-01-19T15:18:38.805Z,100317.52
2018-01-19T15:21:06.379Z,100319.81
2018-01-19T15:23:33.957Z,100316.02
2018-01-19T15:26:01.571Z,100312.69
2018-01-19T15:28:29.125Z,100322.05
2018-01-19T15:30:56.749Z,100324.01
2018-01-19T15:33:24.468Z,100328.91
2018-01-19T15:35:52.024Z,100324.38
2018-01-19T15:38:19.682Z,100316.61
2018-01-19T15:40:47.237Z,100318.68
2018-01-19T15:43:14.782Z,100322.80
2018-01-19T15:45:42.364Z,100320.07
2018-01-19T15:48:09.903Z,100328.03
2018-01-19T15:50:37.448Z,100326.73
2018-01-19T15:53:04.986Z,100325.33
2018-01-19T15:55:32.527Z,100324.55
2018-01-19T15:58:00.072Z,100332.31
2018-01-19T16:00:27.981Z,100329.84
2018-01-19T16:02:55.603Z,100326.30
2018-01-19T16:05:23.188Z,100328.08
2018-01-19T16:07:53.239Z,100329.09
2018-01-19T16:10:27.184Z,100327.03
2018-01-19T16:12:55.146Z,100325.03
2018-01-19T16:15:22.721Z,100326.47
2018-01-19T16:17:50.417Z,100331.95
2018-01-19T16:20:18.053Z,100334.38
2018-01-19T16:22:45.681Z,100336.22
2018-01-19T16:25:13.483Z,100337.55
2018-01-19T16:27:41.107Z,100339.15
2018-01-19T16:30:08.779Z,100348.06
2018-01-19T16:32:36.377Z,100346.20
2018-01-19T16:35:03.956Z,100355.20
2018-01-19T16:37:31.618Z,100349.09
2018-01-19T16:39:59.253Z,100347.25
2018-01-19T16:42:26.935Z,100349.09
2018-01-19T16:44:55.395Z,100346.95
2018-01-19T16:47:22.952Z,100348.91
2018-01-19T16:49:51.394Z,100336.72
2018-01-19T16:52:18.998Z,100348.48
2018-01-19T16:54:46.742Z,100354.83
2018-01-19T16:57:14.421Z,100353.27
2018-01-19T16:59:42.300Z,100355.05
2018-01-19T17:02:11.805Z,100366.09
2018-01-19T17:04:40.768Z,100366.12
2018-01-19T17:07:08.842Z,100372.26
2018-01-19T17:09:36.421Z,100370.62
2018-01-19T17:12:04.092Z,100377.19
2018-01-19T17:14:31.637Z,100389.16
2018-01-19T17:17:00.978Z,100386.66
2018-01-19T17:19:30.311Z,100390.97
2018-01-19T17:21:58.970Z,100380.67
2018-01-19T17:24:27.550Z,100395.73
2018-01-19T17:26:55.422Z,100391.84
2018-01-19T17:29:23.954Z,100387.00
2018-01-19T17:31:51.870Z,100382.45
2018-01-19T17:34:19.750Z,100386.21
2018-01-19T17:36:47.508Z,100381.88
2018-01-19T17:39:15.198Z,100382.86
2018-01-19T17:41:42.826Z,100381.69
2018-01-19T17:44:10.456Z,100394.61
2018-01-19T17:46:37.994Z,100386.75
2018-01-19T17:49:07.158Z,100395.19
2018-01-19T17:51:35.614Z,100383.93
2018-01-19T17:54:03.958Z,100395.70
2018-01-19T17:56:32.406Z,100400.18
2018-01-19T17:59:00.002Z,100404.94
2018-01-19T18:01:27.646Z,100410.80
2018-01-19T18:03:55.258Z,100405.75
2018-01-19T18:06:22.795Z,100402.71
2018-01-19T18:08:52.662Z,100410.50
2018-01-19T18:11:20.333Z,100414.42
2018-01-19T18:13:48.032Z,100405.23
2018-01-19T18:16:15.593Z,100405.66
2018-01-19T18:18:43.134Z,100409.66
2018-01-19T18:21:10.771Z,100417.43
2018-01-19T18:23:38.311Z,100409.18
2018-01-19T18:26:05.981Z,100409.91
2018-01-19T18:28:33.653Z,100409.00
2018-01-19T18:31:01.465Z,100405.87
2018-01-19T18:33:29.035Z,100407.22
2018-01-19T18:35:57.992Z,100405.73
2018-01-19T18:38:26.634Z,100402.39
2018-01-19T18:40:55.437Z,100411.36
2018-01-19T18:43:23.117Z,100406.55
2018-01-19T18:45:50.746Z,100410.18
2018-01-19T18:48:18.478Z,100411.21
2018-01-19T18:50:46.289Z,100412.67
2018-01-19T18:53:13.975Z,100413.02
2018-01-19T18:55:41.776Z,100414.77
2018-01-19T18:58:09.354Z,100412.20
2018-01-19T19:00:37.238Z,100407.98
2018-01-19T19:03:04.834Z,100409.52
2018-01-19T19:05:32.414Z,100416.34
2018-01-19T19:08:00.044Z,100420.44
2018-01-19T19:10:27.597Z,100421.88
2018-01-19T19:12:55.142Z,100421.40
2018-01-19T19:15:22.690Z,100414.73
2018-01-19T19:17:50.244Z,100419.08
2018-01-19T19:20:17.790Z,100423.19
2018-01-19T19:22:45.441Z,100420.83
2018-01-19T19:25:13.032Z,100421.23
2018-01-19T19:27:40.582Z,100421.69
2018-01-19T19:30:08.125Z,100427.73
2018-01-19T19:32:35.666Z,100427.48
2018-01-19T19:35:03.216Z,100429.91
2018-01-19T19:37:30.758Z,100426.22
2018-01-19T19:39:58.313Z,100428.86
2018-01-19T19:42:25.854Z,100435.91
2018-01-19T19:44:53.491Z,100437.97
2018-01-19T19:47:21.074Z,100436.77
2018-01-19T19:49:49.619Z,100440.91
2018-01-19T19:52:17.193Z,100440.91
2018-01-19T19:54:44.869Z,100440.73
2018-01-19T19:57:12.418Z,100442.62
2018-01-19T19:59:40.077Z,100438.91
2018-01-19T20:02:07.621Z,100436.80
2018-01-19T20:04:35.161Z,100443.86
2018-01-19T20:07:02.757Z,100446.06
2018-01-19T20:09:30.294Z,100448.73
2018-01-19T20:11:57.850Z,100443.55
2018-01-19T20:14:25.398Z,100444.23
2018-01-19T20:16:52.965Z,100445.26
2018-01-19T20:19:20.562Z,100450.34
2018-01-19T20:21:48.113Z,100443.58
2018-01-19T20:24:15.705Z,100443.75
2018-01-19T20:26:44.211Z,100442.69
2018-01-19T20:29:12.549Z,100438.89
2018-01-19T20:31:41.126Z,100440.85
2018-01-19T20:34:09.238Z,100436.78
2018-01-19T20:36:36.834Z,100433.92
2018-01-19T20:39:04.377Z,100435.97
2018-01-19T20:41:32.846Z,100432.59
2018-01-19T20:44:01.406Z,100430.05
2018-01-19T20:46:29.086Z,100426.36
2018-01-19T20:48:56.714Z,100430.57
2018-01-19T20:51:24.305Z,100431.79
2018-01-19T20:53:51.850Z,100427.39
2018-01-19T20:56:19.445Z,100430.82
2018-01-19T20:58:47.031Z,100440.31
2018-01-19T21:01:14.618Z,100437.06
2018-01-19T21:03:42.170Z,100444.75
2018-01-19T21:06:09.725Z,100443.24
2018-01-19T21:08:37.282Z,100445.06
2018-01-19T21:11:04.825Z,100441.41
2018-01-19T21:13:32.426Z,100445.38
2018-01-19T21:15:59.969Z,100449.56
2018-01-19T21:18:27.559Z,100458.58
2018-01-19T21:20:55.206Z,100455.59
2018-01-19T21:23:23.586Z,100455.39
2018-01-19T21:25:51.125Z,100457.30
2018-01-19T21:28:18.679Z,100456.10
2018-01-19T21:30:46.233Z,100464.33
2018-01-19T21:33:13.929Z,100457.42
2018-01-19T21:35:41.497Z,100458.61
2018-01-19T21:38:09.158Z,100458.18
2018-01-19T21:43:10.782Z,100454.41
2018-01-19T21:45:38.366Z,100456.14
2018-01-19T21:48:05.919Z,100454.63
2018-01-19T21:50:33.503Z,100455.59
2018-01-19T21:53:01.054Z,100447.61
2018-01-19T21:55:28.636Z,100455.16
2018-01-19T21:57:56.182Z,100451.51
2018-01-19T22:00:23.729Z,100455.17
2018-01-19T22:02:51.317Z,100455.55
2018-01-19T22:05:19.695Z,100449.66
2018-01-19T22:07:47.252Z,100449.34
2018-01-19T22:10:14.798Z,100451.20
2018-01-19T22:12:43.198Z,100449.02
2018-01-19T22:15:10.737Z,100443.67
2018-01-19T22:17:38.284Z,100447.94
2018-01-19T22:20:05.830Z,100451.28
2018-01-19T22:22:33.373Z,100452.66
2018-01-19T22:25:00.929Z,100451.89
2018-01-19T22:27:28.872Z,100449.23
2018-01-19T22:29:56.525Z,100442.84
2018-01-19T22:32:24.070Z,100452.51
2018-01-19T22:34:51.722Z,100453.36
2018-01-19T22:37:19.284Z,100446.45
2018-01-19T22:39:47.773Z,100447.39
2018-01-19T22:42:15.325Z,100444.59
2018-01-19T22:44:42.881Z,100442.50
2018-01-19T22:47:10.421Z,100447.92
2018-01-19T22:49:37.986Z,100441.41
2018-01-19T22:52:05.541Z,100442.76
2018-01-19T22:54:33.162Z,100450.41
2018-01-19T22:57:01.512Z,100448.29
2018-01-19T22:59:29.110Z,100442.45
2018-01-19T23:01:57.374Z,100444.47
2018-01-19T23:04:24.921Z,100454.20
2018-01-19T23:06:53.365Z,100451.98
2018-01-19T23:09:21.745Z,100450.44
2018-01-19T23:11:49.294Z,100457.55
2018-01-19T23:14:16.841Z,100458.58
2018-01-19T23:16:44.401Z,100457.30
2018-01-19T23:19:11.954Z,100451.98
2018-01-19T23:21:39.598Z,100451.73
2018-01-19T23:24:07.982Z,100454.00
2018-01-19T23:26:35.590Z,100457.59
2018-01-19T23:29:03.197Z,100460.34
2018-01-19T23:31:30.866Z,100459.04
2018-01-19T23:33:58.409Z,100457.37
2018-01-19T23:36:25.990Z,100459.47
2018-01-19T23:38:53.539Z,100455.52
2018-01-19T23:41:21.093Z,100458.39
2018-01-19T23:43:48.766Z,100460.27
2018-01-19T23:46:16.307Z,100462.16
2018-01-19T23:48:43.858Z,100454.86
2018-01-19T23:51:11.443Z,100462.34
2018-01-19T23:53:39.021Z,100462.17
2018-01-19T23:56:06.574Z,100460.02
2018-01-19T23:58:34.170Z,100462.73
